createdAt,value
2023-04-29T00:01:59.192Z,5.00
2023-04-29T00:04:27.020Z,4.57
2023-04-29T00:06:54.795Z,5.18
2023-04-29T00:09:22.652Z,4.88
2023-04-29T00:11:50.504Z,5.53
2023-04-29T00:14:18.459Z,5.15
2023-04-29T00:16:45.934Z,5.05
2023-04-29T00:19:13.512Z,4.35
2023-04-29T00:21:41.552Z,4.40
2023-04-29T00:24:09.017Z,3.47
2023-04-29T00:26:36.373Z,4.20
2023-04-29T00:29:03.848Z,4.70
2023-04-29T00:31:33.049Z,4.13
2023-04-29T00:34:00.749Z,4.03
2023-04-29T00:36:28.591Z,4.28
2023-04-29T00:38:56.099Z,4.15
2023-04-29T00:41:24.474Z,4.25
2023-04-29T00:43:52.925Z,4.35
2023-04-29T00:46:20.580Z,4.85
2023-04-29T00:48:48.351Z,4.18
2023-04-29T00:51:17.296Z,4.60
2023-04-29T00:53:46.527Z,4.43
2023-04-29T00:56:15.988Z,4.53
2023-04-29T00:58:50.001Z,3.85
2023-04-29T01:01:17.864Z,3.78
2023-04-29T01:03:46.027Z,3.00
2023-04-29T01:06:29.298Z,2.58
2023-04-29T01:09:18.029Z,2.63
2023-04-29T01:12:16.411Z,2.13
2023-04-29T01:14:53.335Z,2.15
2023-04-29T01:17:26.962Z,2.50
2023-04-29T01:19:57.138Z,2.60
2023-04-29T01:22:24.877Z,2.50
2023-04-29T01:24:52.953Z,2.58
2023-04-29T01:27:34.606Z,2.30
2023-04-29T01:30:13.504Z,2.15
2023-04-29T01:33:08.194Z,2.00
2023-04-29T01:36:00.864Z,1.70
2023-04-29T01:38:44.915Z,1.45
2023-04-29T01:41:23.751Z,1.30
2023-04-29T01:43:58.919Z,1.08
2023-04-29T01:46:28.756Z,1.20
2023-04-29T01:48:58.863Z,1.40
2023-04-29T01:51:28.455Z,1.05
2023-04-29T01:53:55.970Z,1.17
2023-04-29T01:56:23.644Z,1.40
2023-04-29T01:59:17.220Z,0.93
2023-04-29T02:02:10.736Z,0.90
2023-04-29T02:04:46.307Z,0.68
2023-04-29T02:07:13.881Z,0.73
2023-04-29T02:09:41.582Z,1.17
2023-04-29T02:12:12.123Z,1.20
2023-04-29T02:14:39.888Z,0.75
2023-04-29T02:17:07.635Z,1.30
2023-04-29T02:19:35.198Z,0.95
2023-04-29T02:22:02.623Z,1.00
2023-04-29T02:24:30.375Z,1.20
2023-04-29T02:26:59.191Z,1.13
2023-04-29T02:29:27.374Z,1.27
2023-04-29T02:31:55.489Z,1.23
2023-04-29T02:34:24.258Z,1.55
2023-04-29T02:36:51.740Z,1.60
2023-04-29T02:39:22.573Z,1.55
2023-04-29T02:41:50.112Z,1.48
2023-04-29T02:44:17.625Z,1.75
2023-04-29T02:46:45.958Z,2.05
2023-04-29T02:49:14.166Z,1.70
2023-04-29T02:51:42.517Z,2.55
2023-04-29T02:54:11.450Z,2.50
2023-04-29T02:56:38.953Z,2.47
2023-04-29T02:59:06.541Z,3.00
2023-04-29T03:01:34.210Z,3.33
2023-04-29T03:04:02.272Z,2.85
2023-04-29T03:06:30.115Z,3.25
2023-04-29T03:08:57.898Z,3.60
2023-04-29T03:11:25.483Z,3.47
2023-04-29T03:13:52.848Z,3.70
2023-04-29T03:16:22.189Z,4.15
2023-04-29T03:18:49.997Z,4.18
2023-04-29T03:21:17.844Z,3.88
2023-04-29T03:23:45.469Z,3.97
2023-04-29T03:26:19.388Z,4.55
2023-04-29T03:28:47.409Z,4.85
2023-04-29T03:31:16.658Z,5.18
2023-04-29T03:33:44.805Z,5.60
2023-04-29T03:36:12.613Z,5.40
2023-04-29T03:39:05.175Z,4.85
2023-04-29T03:41:32.846Z,4.50
2023-04-29T03:44:01.084Z,4.40
2023-04-29T03:46:30.277Z,4.68
2023-04-29T03:48:58.773Z,4.18
2023-04-29T03:51:26.670Z,4.47
2023-04-29T03:54:01.891Z,4.75
2023-04-29T03:56:29.419Z,5.53
2023-04-29T04:01:26.520Z,6.00
2023-04-29T04:03:54.168Z,5.78
2023-04-29T04:06:22.207Z,4.97
2023-04-29T04:08:51.462Z,6.45
2023-04-29T04:11:26.426Z,6.00
2023-04-29T04:13:58.346Z,6.07
2023-04-29T04:16:25.960Z,5.65
2023-04-29T04:18:53.503Z,6.07
2023-04-29T04:21:21.398Z,5.95
2023-04-29T04:23:57.242Z,6.22
2023-04-29T04:26:25.453Z,6.30
2023-04-29T04:29:07.259Z,5.95
2023-04-29T04:31:55.943Z,5.60
2023-04-29T04:34:24.367Z,6.63
2023-04-29T04:36:53.226Z,6.55
2023-04-29T04:39:20.785Z,5.95
2023-04-29T04:41:48.873Z,5.45
2023-04-29T04:44:16.717Z,6.50
2023-04-29T04:46:56.826Z,6.38
2023-04-29T04:49:47.196Z,6.55
2023-04-29T04:52:14.841Z,7.25
2023-04-29T04:54:46.685Z,6.97
2023-04-29T04:57:18.782Z,7.43
2023-04-29T04:59:47.014Z,7.18
2023-04-29T05:02:14.524Z,6.57
2023-04-29T05:04:42.473Z,6.05
2023-04-29T05:07:10.993Z,6.18
2023-04-29T05:10:08.781Z,5.53
2023-04-29T05:12:44.332Z,5.57
2023-04-29T05:15:12.729Z,4.78
2023-04-29T05:17:40.959Z,4.30
2023-04-29T05:20:09.211Z,4.78
2023-04-29T05:22:36.720Z,4.35
2023-04-29T05:25:04.351Z,4.45
2023-04-29T05:27:36.766Z,4.25
2023-04-29T05:30:07.614Z,4.53
2023-04-29T05:32:35.152Z,4.38
2023-04-29T05:35:04.799Z,4.43
2023-04-29T05:37:34.924Z,4.03
2023-04-29T05:40:09.869Z,4.63
2023-04-29T05:42:37.632Z,5.03
2023-04-29T05:45:05.619Z,4.80
2023-04-29T05:47:34.030Z,4.50
2023-04-29T05:50:01.787Z,4.30
2023-04-29T05:52:29.680Z,5.20
2023-04-29T05:54:57.928Z,4.78
2023-04-29T05:57:25.751Z,4.30
2023-04-29T05:59:57.816Z,5.10
2023-04-29T06:02:26.070Z,4.80
2023-04-29T06:04:54.019Z,4.50
2023-04-29T06:07:21.788Z,4.10
2023-04-29T06:10:15.459Z,5.30
2023-04-29T06:12:46.812Z,4.78
2023-04-29T06:15:14.365Z,5.43
2023-04-29T06:17:41.833Z,4.90
2023-04-29T06:20:10.119Z,5.50
2023-04-29T06:22:39.588Z,4.47
2023-04-29T06:25:07.503Z,5.00
2023-04-29T06:27:52.783Z,5.22
2023-04-29T06:30:23.844Z,5.18
2023-04-29T06:32:52.009Z,5.10
2023-04-29T06:35:19.617Z,5.63
2023-04-29T06:38:05.572Z,5.20
2023-04-29T06:40:57.888Z,5.32
2023-04-29T06:43:44.872Z,5.35
2023-04-29T06:46:13.883Z,4.80
2023-04-29T06:48:51.291Z,5.18
2023-04-29T06:51:19.049Z,5.55
2023-04-29T06:53:47.994Z,5.30
2023-04-29T06:56:16.945Z,4.97
2023-04-29T06:58:44.958Z,5.03
2023-04-29T07:01:12.740Z,5.20
2023-04-29T07:03:40.613Z,4.93
2023-04-29T07:06:08.445Z,5.28
2023-04-29T07:08:35.978Z,4.95
2023-04-29T07:11:03.961Z,5.13
2023-04-29T07:13:32.885Z,5.22
2023-04-29T07:16:00.758Z,4.93
2023-04-29T07:18:28.717Z,5.07
2023-04-29T07:21:01.655Z,5.22
2023-04-29T07:23:29.654Z,4.72
2023-04-29T07:25:57.048Z,4.95
2023-04-29T07:28:24.686Z,6.10
2023-04-29T07:30:53.864Z,5.68
2023-04-29T07:33:21.462Z,5.72
2023-04-29T07:35:48.864Z,5.30
2023-04-29T07:38:16.454Z,5.22
2023-04-29T07:40:43.952Z,5.47
2023-04-29T07:43:12.054Z,5.70
2023-04-29T07:45:40.118Z,5.55
2023-04-29T07:48:07.656Z,5.30
2023-04-29T07:50:36.679Z,5.30
2023-04-29T07:53:04.329Z,4.80
2023-04-29T07:55:31.954Z,5.40
2023-04-29T07:58:01.455Z,5.25
2023-04-29T08:00:28.943Z,5.72
2023-04-29T08:02:57.943Z,5.55
2023-04-29T08:05:26.286Z,5.78
2023-04-29T08:07:54.360Z,4.90
2023-04-29T08:10:22.863Z,5.40
2023-04-29T08:12:50.742Z,5.40
2023-04-29T08:15:18.938Z,5.53
2023-04-29T08:17:46.616Z,5.70
2023-04-29T08:20:15.233Z,4.80
2023-04-29T08:22:42.944Z,5.72
2023-04-29T08:25:10.866Z,5.13
2023-04-29T08:27:38.540Z,5.45
2023-04-29T08:30:06.792Z,5.55
2023-04-29T08:32:35.484Z,5.80
2023-04-29T08:35:03.336Z,5.88
2023-04-29T08:37:31.086Z,5.60
2023-04-29T08:39:58.634Z,5.40
2023-04-29T08:42:37.410Z,5.80
2023-04-29T08:45:06.332Z,5.38
2023-04-29T08:47:34.419Z,5.43
2023-04-29T08:50:06.182Z,5.32
2023-04-29T08:52:34.163Z,5.43
2023-04-29T08:55:05.594Z,5.20
2023-04-29T08:57:40.137Z,5.50
2023-04-29T09:00:10.477Z,5.25
2023-04-29T09:02:45.242Z,5.72
2023-04-29T09:05:13.164Z,5.70
2023-04-29T09:07:42.436Z,5.68
2023-04-29T09:10:11.076Z,5.07
2023-04-29T09:12:38.651Z,5.13
2023-04-29T09:15:07.004Z,5.15
2023-04-29T09:17:42.303Z,5.38
2023-04-29T09:20:22.222Z,5.88
2023-04-29T09:23:07.673Z,6.05
2023-04-29T09:25:36.537Z,6.03
2023-04-29T09:28:19.683Z,5.70
2023-04-29T09:30:47.389Z,5.57
2023-04-29T09:33:16.855Z,5.35
2023-04-29T09:35:44.331Z,5.03
2023-04-29T09:38:16.053Z,5.30
2023-04-29T09:40:58.246Z,5.53
2023-04-29T09:43:27.633Z,5.10
2023-04-29T09:45:55.290Z,5.78
2023-04-29T09:48:30.980Z,5.65
2023-04-29T09:51:04.787Z,5.30
2023-04-29T09:53:32.584Z,5.57
2023-04-29T09:56:02.271Z,5.82
2023-04-29T09:58:37.849Z,4.95
2023-04-29T10:01:06.827Z,5.00
2023-04-29T10:03:38.998Z,5.20
2023-04-29T10:06:08.162Z,5.10
2023-04-29T10:08:36.138Z,5.20
2023-04-29T10:11:04.718Z,5.13
2023-04-29T10:13:35.361Z,4.75
2023-04-29T10:16:16.294Z,5.72
2023-04-29T10:18:50.621Z,4.88
2023-04-29T10:21:22.171Z,5.22
2023-04-29T10:23:50.297Z,5.22
2023-04-29T10:26:19.601Z,5.30
2023-04-29T10:28:48.338Z,4.90
2023-04-29T10:31:18.166Z,5.10
2023-04-29T10:33:48.040Z,4.45
2023-04-29T10:36:16.351Z,4.68
2023-04-29T10:38:50.753Z,5.20
2023-04-29T10:41:25.784Z,4.80
2023-04-29T10:43:53.682Z,4.53
2023-04-29T10:46:26.955Z,4.95
2023-04-29T10:49:01.784Z,4.95
2023-04-29T10:51:43.217Z,4.75
2023-04-29T10:54:14.106Z,4.50
2023-04-29T10:56:50.508Z,5.00
2023-04-29T10:59:42.315Z,4.68
2023-04-29T11:02:12.814Z,4.50
2023-04-29T11:05:12.528Z,4.65
2023-04-29T11:07:40.510Z,4.00
2023-04-29T11:10:08.285Z,4.00
2023-04-29T11:12:35.831Z,4.47
2023-04-29T11:15:05.118Z,4.88
2023-04-29T11:17:36.916Z,4.68
2023-04-29T11:20:04.937Z,4.28
2023-04-29T11:22:33.964Z,4.60
2023-04-29T11:25:07.418Z,4.80
2023-04-29T11:27:37.749Z,5.40
2023-04-29T11:30:07.789Z,4.85
2023-04-29T11:32:38.004Z,4.55
2023-04-29T11:35:17.770Z,4.80
2023-04-29T11:37:47.035Z,4.30
2023-04-29T11:40:15.426Z,4.60
2023-04-29T11:42:47.946Z,5.00
2023-04-29T11:45:17.749Z,4.75
2023-04-29T11:47:46.966Z,4.38
2023-04-29T11:50:18.026Z,3.70
2023-04-29T11:52:47.831Z,4.68
2023-04-29T11:55:15.524Z,4.65
2023-04-29T11:57:43.014Z,4.78
2023-04-29T12:00:14.722Z,4.53
2023-04-29T12:02:47.304Z,3.90
2023-04-29T12:05:17.155Z,4.03
2023-04-29T12:07:45.445Z,4.43
2023-04-29T12:10:13.148Z,4.40
2023-04-29T12:12:43.170Z,4.40
2023-04-29T12:15:11.202Z,4.18
2023-04-29T12:17:39.782Z,4.38
2023-04-29T12:20:11.512Z,4.88
2023-04-29T12:22:39.216Z,4.38
2023-04-29T12:25:08.122Z,3.85
2023-04-29T12:27:37.167Z,4.30
2023-04-29T12:30:09.910Z,4.70
2023-04-29T12:32:38.811Z,3.90
2023-04-29T12:35:07.470Z,4.22
2023-04-29T12:37:35.567Z,4.03
2023-04-29T12:40:03.025Z,4.20
2023-04-29T12:42:36.450Z,3.80
2023-04-29T12:45:06.709Z,4.00
2023-04-29T12:47:37.765Z,3.33
2023-04-29T12:50:07.291Z,3.70
2023-04-29T12:52:36.742Z,4.10
2023-04-29T12:55:05.086Z,4.00
2023-04-29T12:57:32.669Z,4.07
2023-04-29T13:00:00.543Z,3.70
2023-04-29T13:02:28.731Z,4.00
2023-04-29T13:04:56.667Z,3.60
2023-04-29T13:07:24.430Z,4.18
2023-04-29T13:09:52.138Z,3.28
2023-04-29T13:12:19.750Z,3.67
2023-04-29T13:14:47.828Z,3.28
2023-04-29T13:17:15.732Z,4.00
2023-04-29T13:19:51.105Z,3.33
2023-04-29T13:22:19.759Z,2.90
2023-04-29T13:24:47.423Z,3.53
2023-04-29T13:27:15.104Z,3.70
2023-04-29T13:29:42.701Z,3.20
2023-04-29T13:32:10.336Z,3.60
2023-04-29T13:34:38.093Z,3.50
2023-04-29T13:37:05.841Z,3.35
2023-04-29T13:39:37.911Z,3.17
2023-04-29T13:42:06.587Z,2.85
2023-04-29T13:44:59.082Z,3.13
2023-04-29T13:47:25.902Z,2.30
2023-04-29T13:53:18.528Z,2.70
2023-04-29T13:56:07.599Z,2.60
2023-04-29T14:03:07.131Z,2.65
2023-04-29T14:05:35.087Z,2.50
2023-04-29T14:08:02.717Z,2.28
2023-04-29T14:10:30.283Z,2.28
2023-04-29T14:12:57.789Z,2.20
2023-04-29T14:15:25.515Z,2.58
2023-04-29T14:17:53.575Z,2.05
2023-04-29T14:20:21.074Z,2.10
2023-04-29T14:22:48.608Z,1.80
2023-04-29T14:25:16.146Z,2.05
2023-04-29T14:27:43.559Z,2.00
2023-04-29T14:30:11.722Z,2.08
2023-04-29T14:32:39.179Z,1.77
2023-04-29T14:35:07.241Z,1.92
2023-04-29T14:37:34.717Z,2.05
2023-04-29T14:40:02.153Z,2.08
2023-04-29T14:42:29.776Z,1.90
2023-04-29T14:44:57.190Z,2.00
2023-04-29T14:47:24.924Z,2.13
2023-04-29T14:49:52.354Z,2.03
2023-04-29T14:52:19.873Z,1.85
2023-04-29T14:54:47.350Z,2.40
2023-04-29T14:57:14.826Z,2.30
2023-04-29T14:59:42.188Z,2.40
2023-04-29T15:02:09.757Z,2.40
2023-04-29T15:04:38.149Z,1.98
2023-04-29T15:07:06.122Z,2.08
2023-04-29T15:09:33.528Z,1.80
2023-04-29T15:12:02.353Z,2.13
2023-04-29T15:14:29.884Z,1.92
2023-04-29T15:16:57.585Z,1.90
2023-04-29T15:19:26.326Z,2.05
2023-04-29T15:21:53.840Z,2.40
2023-04-29T15:24:21.428Z,2.30
2023-04-29T15:26:48.913Z,2.10
2023-04-29T15:29:16.357Z,1.95
2023-04-29T15:31:43.928Z,2.00
2023-04-29T15:34:11.552Z,2.30
2023-04-29T15:36:39.275Z,1.98
2023-04-29T15:39:06.669Z,2.53
2023-04-29T15:41:34.191Z,2.50
2023-04-29T15:44:01.636Z,2.40
2023-04-29T15:46:31.517Z,2.28
2023-04-29T15:48:59.068Z,2.10
2023-04-29T15:51:26.747Z,2.35
2023-04-29T15:53:54.204Z,2.70
2023-04-29T15:56:21.766Z,2.10
2023-04-29T15:58:49.177Z,2.30
2023-04-29T16:01:16.588Z,1.77
2023-04-29T16:03:44.143Z,2.00
2023-04-29T16:06:11.849Z,2.10
2023-04-29T16:08:39.301Z,2.30
2023-04-29T16:11:07.107Z,2.00
2023-04-29T16:13:36.268Z,2.45
2023-04-29T16:16:04.245Z,2.90
2023-04-29T16:18:32.466Z,2.08
2023-04-29T16:21:00.054Z,2.65
2023-04-29T16:23:27.505Z,2.00
2023-04-29T16:25:55.676Z,2.60
2023-04-29T16:28:23.115Z,2.40
2023-04-29T16:30:50.686Z,2.10
2023-04-29T16:33:18.236Z,2.50
2023-04-29T16:35:45.935Z,2.45
2023-04-29T16:38:13.589Z,1.80
2023-04-29T16:40:41.461Z,2.28
2023-04-29T16:43:09.004Z,2.20
2023-04-29T16:45:36.574Z,2.47
2023-04-29T16:48:04.263Z,2.38
2023-04-29T16:50:32.072Z,2.30
2023-04-29T16:52:59.493Z,1.80
2023-04-29T16:55:26.881Z,2.28
2023-04-29T16:57:54.291Z,2.40
2023-04-29T17:00:21.862Z,2.58
2023-04-29T17:02:51.407Z,2.20
2023-04-29T17:05:19.745Z,1.85
2023-04-29T17:07:47.470Z,2.10
2023-04-29T17:10:15.000Z,2.10
2023-04-29T17:12:42.775Z,2.58
2023-04-29T17:15:10.844Z,2.30
2023-04-29T17:17:38.590Z,2.22
2023-04-29T17:20:07.000Z,2.58
2023-04-29T17:22:34.683Z,2.33
2023-04-29T17:25:02.510Z,2.10
2023-04-29T17:27:29.989Z,2.70
2023-04-29T17:29:57.744Z,2.35
2023-04-29T17:32:28.772Z,2.10
2023-04-29T17:34:57.729Z,2.10
2023-04-29T17:37:25.934Z,2.15
2023-04-29T17:39:53.955Z,2.28
2023-04-29T17:42:21.697Z,2.22
2023-04-29T17:44:49.757Z,2.65
2023-04-29T17:47:17.532Z,2.47
2023-04-29T17:49:45.429Z,2.80
2023-04-29T17:52:13.260Z,2.53
2023-04-29T17:54:41.827Z,2.75
2023-04-29T17:57:09.590Z,2.67
2023-04-29T17:59:37.073Z,2.70
2023-04-29T18:02:04.548Z,2.35
2023-04-29T18:04:32.148Z,2.42
2023-04-29T18:06:59.661Z,2.60
2023-04-29T18:09:27.174Z,2.33
2023-04-29T18:11:54.609Z,2.25
2023-04-29T18:14:22.230Z,2.50
2023-04-29T18:16:49.910Z,2.58
2023-04-29T18:19:17.547Z,2.20
2023-04-29T18:21:44.996Z,2.80
2023-04-29T18:24:12.557Z,2.13
2023-04-29T18:26:40.076Z,2.90
2023-04-29T18:29:07.714Z,2.53
2023-04-29T18:31:35.326Z,2.50
2023-04-29T18:34:02.836Z,2.70
2023-04-29T18:36:30.321Z,2.80
2023-04-29T18:38:57.857Z,3.00
2023-04-29T18:41:25.367Z,2.67
2023-04-29T18:43:53.460Z,4.20
2023-04-29T18:46:21.147Z,3.90
2023-04-29T18:48:48.836Z,5.40
2023-04-29T18:51:16.389Z,4.63
2023-04-29T18:53:43.974Z,4.70
2023-04-29T18:56:11.507Z,4.90
2023-04-29T18:58:39.154Z,5.07
2023-04-29T19:01:06.864Z,6.05
2023-04-29T19:03:34.472Z,6.47
2023-04-29T19:06:01.970Z,7.38
2023-04-29T19:08:29.642Z,6.80
2023-04-29T19:10:58.689Z,7.07
2023-04-29T19:13:29.326Z,7.70
2023-04-29T19:15:56.701Z,8.32
2023-04-29T19:18:24.417Z,9.75
2023-04-29T19:20:53.807Z,9.18
2023-04-29T19:23:21.563Z,8.02
2023-04-29T19:25:48.949Z,8.35
2023-04-29T19:28:16.461Z,8.30
2023-04-29T19:30:43.879Z,8.77
2023-04-29T19:33:11.451Z,8.57
2023-04-29T19:35:38.950Z,8.98
2023-04-29T19:38:06.357Z,8.68
2023-04-29T19:40:33.809Z,9.43
2023-04-29T19:43:01.431Z,9.10
2023-04-29T19:45:29.161Z,8.90
2023-04-29T19:47:56.992Z,9.38
2023-04-29T19:50:24.657Z,9.50
2023-04-29T19:52:52.258Z,10.65
2023-04-29T19:55:19.817Z,9.30
2023-04-29T19:57:47.482Z,10.10
2023-04-29T20:00:15.501Z,9.60
2023-04-29T20:02:43.363Z,9.80
2023-04-29T20:05:11.605Z,10.35
2023-04-29T20:07:39.377Z,9.65
2023-04-29T20:10:07.805Z,10.65
2023-04-29T20:12:35.913Z,10.85
2023-04-29T20:15:05.878Z,11.23
2023-04-29T20:17:33.980Z,11.07
2023-04-29T20:20:01.974Z,10.13
2023-04-29T20:22:29.641Z,11.10
2023-04-29T20:24:57.059Z,11.40
2023-04-29T20:27:24.723Z,11.68
2023-04-29T20:29:52.551Z,10.55
2023-04-29T20:32:20.492Z,11.82
2023-04-29T20:34:48.098Z,11.73
2023-04-29T20:37:15.939Z,11.75
2023-04-29T20:39:43.347Z,11.35
2023-04-29T20:42:10.846Z,11.80
2023-04-29T20:44:38.717Z,10.75
2023-04-29T20:47:06.417Z,12.18
2023-04-29T20:49:33.896Z,12.85
2023-04-29T20:52:02.106Z,12.45
2023-04-29T20:54:29.765Z,12.60
2023-04-29T20:56:57.462Z,12.63
2023-04-29T20:59:25.350Z,11.93
2023-04-29T21:01:52.829Z,11.70
2023-04-29T21:04:21.202Z,12.40
2023-04-29T21:06:50.812Z,12.05
2023-04-29T21:09:22.432Z,12.63
2023-04-29T21:11:50.002Z,12.40
2023-04-29T21:14:18.794Z,13.63
2023-04-29T21:16:46.490Z,13.32
2023-04-29T21:19:13.836Z,13.57
2023-04-29T21:21:41.316Z,12.98
2023-04-29T21:24:08.815Z,12.98
2023-04-29T21:26:36.833Z,13.35
2023-04-29T21:29:04.408Z,14.13
2023-04-29T21:31:32.075Z,12.40
2023-04-29T21:34:00.615Z,14.43
2023-04-29T21:36:28.418Z,13.35
2023-04-29T21:38:56.015Z,13.63
2023-04-29T21:41:31.024Z,13.32
2023-04-29T21:44:00.627Z,12.60
2023-04-29T21:46:29.330Z,14.35
2023-04-29T21:49:01.103Z,11.75
2023-04-29T21:51:29.251Z,12.80
2023-04-29T21:53:56.640Z,14.48
2023-04-29T21:56:24.593Z,14.25
2023-04-29T21:58:54.438Z,13.65
2023-04-29T22:01:48.502Z,14.07
2023-04-29T22:04:17.211Z,14.10
2023-04-29T22:06:44.782Z,13.27
2023-04-29T22:09:12.539Z,11.55
2023-04-29T22:11:40.210Z,12.15
2023-04-29T22:14:07.694Z,14.38
2023-04-29T22:16:36.153Z,14.77
2023-04-29T22:19:04.319Z,14.73
2023-04-29T22:21:31.773Z,14.65
2023-04-29T22:23:59.653Z,13.45
2023-04-29T22:26:27.153Z,14.73
2023-04-29T22:28:55.124Z,14.20
2023-04-29T22:31:22.631Z,13.88
2023-04-29T22:33:50.562Z,14.50
2023-04-29T22:36:18.057Z,14.15
2023-04-29T22:38:45.716Z,13.55
2023-04-29T22:41:13.831Z,14.13
2023-04-29T22:43:41.426Z,14.90
2023-04-29T22:46:09.854Z,14.70
2023-04-29T22:48:37.409Z,14.55
2023-04-29T22:51:05.202Z,13.55
2023-04-29T22:53:33.056Z,12.70
2023-04-29T22:56:02.129Z,12.80
2023-04-29T22:58:29.837Z,14.18
2023-04-29T23:00:57.910Z,14.32
2023-04-29T23:03:26.693Z,14.10
2023-04-29T23:06:01.244Z,14.00
2023-04-29T23:08:28.941Z,13.60
2023-04-29T23:10:56.361Z,14.98
2023-04-29T23:13:23.902Z,14.50
2023-04-29T23:15:52.428Z,13.88
2023-04-29T23:18:20.133Z,14.52
2023-04-29T23:20:47.980Z,13.80
2023-04-29T23:23:15.607Z,13.68
2023-04-29T23:25:43.683Z,14.13
2023-04-29T23:28:11.521Z,14.15
2023-04-29T23:30:39.068Z,12.88
2023-04-29T23:33:06.680Z,14.25
2023-04-29T23:35:34.117Z,13.25
2023-04-29T23:38:01.571Z,12.38
2023-04-29T23:40:30.249Z,13.07
2023-04-29T23:42:59.391Z,13.32
2023-04-29T23:45:27.022Z,14.13
2023-04-29T23:47:54.558Z,13.55
2023-04-29T23:50:22.075Z,12.98
2023-04-29T23:52:49.572Z,12.57
2023-04-29T23:55:17.240Z,14.02
2023-04-29T23:57:44.760Z,12.32
